Time;durP1;ratioP1;P1;durP2;ratioP2;P2;SDS_P1;SDS_P2;PMS_P1;PMS_P2;Temp;Humidity;BMP_temperature;BMP_pressure;BME280_temperature;BME280_humidity;BME280_pressure;Samples;Min_cycle;Max_cycle;Signal;HPM_P1;HPM_P2
2023/11/19 00:01:39;;;;;;;6.22;3.97;;;;;;;14.97;100.00;100813.13;5249731;28;20029;-75
2023/11/19 00:04:11;;;;;;;6.80;3.53;;;;;;;14.96;100.00;100806.16;5252561;28;20036;-75
2023/11/19 00:06:43;;;;;;;5.03;3.40;;;;;;;14.93;100.00;100809.16;5231423;28;20125;-75
2023/11/19 00:09:16;;;;;;;8.02;3.72;;;;;;;14.95;100.00;100801.88;5248753;28;20138;-75
2023/11/19 00:11:48;;;;;;;6.88;3.55;;;;;;;14.93;100.00;100796.78;5253299;28;20040;-75
2023/11/19 00:14:20;;;;;;;5.43;3.15;;;;;;;14.96;100.00;100792.97;5251159;28;20466;-75
2023/11/19 00:16:53;;;;;;;6.07;3.50;;;;;;;14.91;100.00;100785.56;5251625;28;20334;-75
2023/11/19 00:19:26;;;;;;;5.65;2.72;;;;;;;14.88;100.00;100772.66;5251820;28;20032;-75
2023/11/19 00:22:02;;;;;;;6.78;3.00;;;;;;;14.91;100.00;100756.53;5251451;28;20498;-75
2023/11/19 00:24:34;;;;;;;5.72;2.85;;;;;;;14.93;100.00;100759.03;5252115;28;20389;-75
2023/11/19 00:27:07;;;;;;;7.38;3.03;;;;;;;14.91;100.00;100750.44;5251737;28;20037;-74
2023/11/19 00:29:40;;;;;;;9.95;3.20;;;;;;;14.98;100.00;100754.09;5254079;28;20029;-75
2023/11/19 00:32:11;;;;;;;11.18;3.17;;;;;;;14.91;100.00;100724.06;5254549;28;20036;-75
2023/11/19 00:34:45;;;;;;;6.38;3.00;;;;;;;14.97;100.00;100726.06;5252856;28;20023;-75
2023/11/19 00:37:17;;;;;;;7.07;2.45;;;;;;;14.93;100.00;100741.38;5253573;28;20021;-75
2023/11/19 00:39:49;;;;;;;7.68;2.75;;;;;;;14.89;100.00;100739.22;5255383;28;20029;-75
2023/11/19 00:42:20;;;;;;;7.43;3.10;;;;;;;14.84;100.00;100758.16;5254244;28;20465;-75
2023/11/19 00:44:52;;;;;;;5.40;2.60;;;;;;;14.88;100.00;100751.56;5253934;28;20033;-75
2023/11/19 00:47:25;;;;;;;5.10;2.50;;;;;;;14.83;100.00;100749.41;5258770;28;20024;-75
2023/11/19 00:49:56;;;;;;;7.00;2.43;;;;;;;14.84;100.00;100753.69;5259178;28;20029;-75
2023/11/19 00:52:28;;;;;;;8.27;2.92;;;;;;;14.83;100.00;100754.69;5255190;28;20029;-75
2023/11/19 00:55:00;;;;;;;7.30;2.53;;;;;;;14.81;100.00;100761.97;5255729;28;20019;-75
2023/11/19 00:57:32;;;;;;;7.63;2.83;;;;;;;14.74;100.00;100749.56;5259008;28;20478;-75
2023/11/19 01:00:18;;;;;;;6.95;2.35;;;;;;;14.83;100.00;100751.25;5258779;28;20033;-75
2023/11/19 01:02:50;;;;;;;10.48;2.92;;;;;;;14.77;100.00;100755.34;5257922;28;20036;-75
2023/11/19 01:05:22;;;;;;;6.55;2.50;;;;;;;14.81;100.00;100761.09;5255605;28;20029;-75
2023/11/19 01:07:54;;;;;;;8.90;2.60;;;;;;;14.84;100.00;100753.69;5256841;28;20512;-75
2023/11/19 01:10:26;;;;;;;8.90;2.50;;;;;;;14.78;100.00;100761.44;5256057;28;20119;-75
2023/11/19 01:12:58;;;;;;;8.65;2.50;;;;;;;14.82;100.00;100766.25;5258093;28;20065;-75
2023/11/19 01:15:29;;;;;;;6.20;2.03;;;;;;;14.83;100.00;100762.59;5256710;28;20029;-75
2023/11/19 01:18:04;;;;;;;10.70;2.45;;;;;;;14.77;100.00;100750.06;5255292;28;20035;-75
2023/11/19 01:20:36;;;;;;;10.48;3.10;;;;;;;14.75;100.00;100745.94;5258623;28;20032;-75
2023/11/19 01:23:08;;;;;;;9.13;2.55;;;;;;;14.75;100.00;100741.50;5257000;28;20145;-75
2023/11/19 01:25:40;;;;;;;11.07;2.65;;;;;;;14.76;100.00;100747.59;5257813;28;20027;-75
2023/11/19 01:28:12;;;;;;;8.05;2.40;;;;;;;14.71;100.00;100744.59;5256567;28;20489;-75
2023/11/19 01:30:44;;;;;;;9.60;2.60;;;;;;;14.75;100.00;100732.75;5254955;28;20035;-75
2023/11/19 01:33:16;;;;;;;6.40;2.70;;;;;;;14.67;100.00;100714.28;5257046;28;20505;-75
2023/11/19 01:35:48;;;;;;;10.57;3.08;;;;;;;14.70;100.00;100733.25;5257217;28;20028;-75
2023/11/19 01:38:20;;;;;;;10.07;3.22;;;;;;;14.69;100.00;100734.19;5255002;28;20027;-75
2023/11/19 01:40:56;;;;;;;8.90;2.83;;;;;;;14.78;100.00;100740.34;5252849;28;20120;-75
2023/11/19 01:43:33;;;;;;;12.88;3.05;;;;;;;14.68;100.00;100740.47;5257943;28;20025;-75
2023/11/19 01:46:06;;;;;;;11.45;3.38;;;;;;;14.65;100.00;100753.97;5257901;28;20029;-75
2023/11/19 01:48:45;;;;;;;13.15;3.53;;;;;;;14.78;100.00;100748.25;5254524;28;20485;-75
2023/11/19 01:51:17;;;;;;;15.32;4.28;;;;;;;14.67;100.00;100744.09;5257625;28;20032;-75
2023/11/19 01:53:49;;;;;;;13.80;2.97;;;;;;;14.70;100.00;100738.50;5257541;28;20029;-74
2023/11/19 01:56:21;;;;;;;17.48;3.40;;;;;;;14.72;100.00;100747.06;5255448;28;20501;-75
2023/11/19 01:58:54;;;;;;;13.95;4.00;;;;;;;14.73;100.00;100754.00;5253502;28;20123;-75
2023/11/19 02:01:27;;;;;;;;;;;;;;;15.40;100.00;100742.59;5257686;28;20036;-75
2023/11/19 02:03:58;;;;;;;11.60;3.22;;;;;;;14.79;100.00;100749.91;5257943;28;19909;-75
2023/11/19 02:06:32;;;;;;;11.13;3.97;;;;;;;14.69;100.00;100757.13;5255858;28;20566;-75
2023/11/19 02:09:07;;;;;;;9.73;3.03;;;;;;;14.73;100.00;100754.00;5253492;28;20036;-75
2023/11/19 02:11:40;;;;;;;13.13;4.15;;;;;;;14.72;100.00;100743.63;5249859;28;20537;-75
2023/11/19 02:14:12;;;;;;;;;;;;;;;15.43;100.00;100742.28;5257354;28;20025;-75
2023/11/19 02:16:44;;;;;;;13.10;3.72;;;;;;;14.73;100.00;100738.16;5255697;28;19919;-75
2023/11/19 02:19:18;;;;;;;14.90;3.55;;;;;;;14.72;100.00;100740.97;5254641;28;20125;-75
2023/11/19 02:21:50;;;;;;;11.32;3.90;;;;;;;14.66;100.00;100731.91;5254776;28;20052;-75
2023/11/19 02:24:26;;;;;;;14.65;4.20;;;;;;;14.52;100.00;100735.16;5237249;28;20040;-74
2023/11/19 02:27:05;;;;;;;15.80;3.95;;;;;;;14.50;100.00;100730.00;5255652;28;20064;-75
2023/11/19 02:29:37;;;;;;;10.70;3.83;;;;;;;14.36;100.00;100731.41;5235088;28;20056;-74
2023/11/19 02:32:09;;;;;;;12.63;3.47;;;;;;;14.33;100.00;100734.34;5254383;28;20028;-75
2023/11/19 02:34:41;;;;;;;12.68;4.00;;;;;;;14.27;100.00;100732.34;5256522;28;20021;-75
2023/11/19 02:37:14;;;;;;;17.42;4.15;;;;;;;14.22;100.00;100734.63;5253992;28;20027;-74
2023/11/19 02:39:46;;;;;;;19.27;4.55;;;;;;;14.17;100.00;100726.38;5256586;28;20688;-74
2023/11/19 02:42:18;;;;;;;12.00;3.92;;;;;;;14.16;100.00;100723.88;5255730;28;20029;-75
2023/11/19 02:44:50;;;;;;;14.30;4.65;;;;;;;14.10;100.00;100717.44;5253787;28;20196;-74
2023/11/19 02:47:23;;;;;;;13.98;4.00;;;;;;;14.10;100.00;100714.81;5252486;28;20037;-75
2023/11/19 02:49:55;;;;;;;17.65;5.40;;;;;;;14.06;100.00;100718.75;5256551;28;20047;-75
2023/11/19 02:52:28;;;;;;;19.95;5.30;;;;;;;14.07;100.00;100720.38;5257394;28;20029;-74
2023/11/19 02:54:59;;;;;;;18.02;4.55;;;;;;;14.05;100.00;100722.34;5253839;28;20483;-75
2023/11/19 02:57:32;;;;;;;17.45;4.18;;;;;;;14.05;100.00;100724.97;5247156;28;20039;-74
2023/11/19 03:00:12;;;;;;;18.13;3.90;;;;;;;14.02;100.00;100714.78;5253862;28;20029;-74
2023/11/19 03:02:47;;;;;;;19.15;5.22;;;;;;;14.06;100.00;100709.03;5253953;28;20044;-75
2023/11/19 03:05:19;;;;;;;18.95;5.10;;;;;;;13.92;100.00;100708.78;5253666;28;20375;-74
2023/11/19 03:07:51;;;;;;;17.92;4.03;;;;;;;13.96;100.00;100716.19;5252634;28;20029;-74
2023/11/19 03:10:23;;;;;;;19.00;4.57;;;;;;;13.91;100.00;100715.84;5251379;28;20024;-74
2023/11/19 03:12:56;;;;;;;18.98;5.03;;;;;;;13.84;100.00;100706.91;5236595;28;20037;-74
2023/11/19 03:15:28;;;;;;;;;;;;;;;14.52;100.00;100719.31;5254114;28;20021;-75
2023/11/19 03:18:00;;;;;;;22.42;4.93;;;;;;;13.89;100.00;100728.31;5252380;28;19921;-74
2023/11/19 03:20:32;;;;;;;16.92;4.68;;;;;;;13.81;100.00;100734.38;5254192;28;20378;-74
2023/11/19 03:23:04;;;;;;;18.27;4.55;;;;;;;13.77;100.00;100727.75;5254741;28;20044;-74
2023/11/19 03:25:36;;;;;;;22.15;5.78;;;;;;;13.74;100.00;100724.59;5255758;28;20029;-75
2023/11/19 03:28:08;;;;;;;16.30;4.87;;;;;;;13.82;100.00;100727.28;5254127;28;20040;-74
2023/11/19 03:30:40;;;;;;;23.67;5.65;;;;;;;13.74;100.00;100735.13;5255303;28;20033;-74
2023/11/19 03:33:12;;;;;;;19.48;4.57;;;;;;;13.75;100.00;100732.38;5252923;28;20033;-74
2023/11/19 03:35:44;;;;;;;21.15;5.20;;;;;;;13.73;100.00;100739.59;5254078;28;20025;-75
2023/11/19 03:38:15;;;;;;;24.52;5.00;;;;;;;13.79;100.00;100730.25;5253134;28;20443;-75
2023/11/19 03:40:47;;;;;;;22.55;5.28;;;;;;;13.78;100.00;100718.88;5253249;28;20025;-74
2023/11/19 03:43:19;;;;;;;22.50;5.38;;;;;;;13.80;100.00;100716.94;5255726;28;20496;-74
2023/11/19 03:45:51;;;;;;;21.63;5.47;;;;;;;13.76;100.00;100725.28;5253499;28;20037;-75
2023/11/19 03:48:23;;;;;;;20.20;4.75;;;;;;;13.75;100.00;100735.00;5251677;28;20020;-74
2023/11/19 03:50:55;;;;;;;21.02;5.97;;;;;;;13.76;100.00;100744.53;5255325;28;20036;-75
2023/11/19 03:53:27;;;;;;;23.67;4.80;;;;;;;13.66;100.00;100730.63;5254195;28;20024;-75
2023/11/19 03:55:59;;;;;;;23.98;5.75;;;;;;;13.66;100.00;100730.63;5253650;28;20471;-74
2023/11/19 03:58:31;;;;;;;27.05;5.70;;;;;;;13.63;100.00;100736.19;5253512;28;20389;-74
2023/11/19 04:01:03;;;;;;;21.08;5.32;;;;;;;13.66;100.00;100727.19;5254581;28;20017;-75
2023/11/19 04:03:35;;;;;;;28.17;5.93;;;;;;;13.63;100.00;100737.03;5254244;28;20029;-75
2023/11/19 04:06:07;;;;;;;20.35;5.25;;;;;;;13.61;100.00;100736.38;5253869;28;20033;-75
2023/11/19 04:08:41;;;;;;;;;;;;;;;14.29;100.00;100730.38;5252923;28;20136;-74
2023/11/19 04:11:13;;;;;;;22.10;5.47;;;;;;;13.67;100.00;100737.53;5251956;28;20599;-75
2023/11/19 04:13:44;;;;;;;22.88;4.95;;;;;;;13.65;100.00;100739.53;5253309;28;20025;-75
2023/11/19 04:16:16;;;;;;;25.60;5.55;;;;;;;13.67;100.00;100749.88;5255742;28;20031;-74
2023/11/19 04:18:48;;;;;;;17.73;4.93;;;;;;;13.60;100.00;100744.44;5252114;28;20427;-74
2023/11/19 04:21:20;;;;;;;22.65;5.45;;;;;;;13.61;100.00;100741.63;5253043;28;20433;-75
2023/11/19 04:23:52;;;;;;;20.50;5.93;;;;;;;13.59;100.00;100742.75;5253167;28;20033;-74
2023/11/19 04:26:24;;;;;;;24.35;5.70;;;;;;;13.65;100.00;100757.13;5255154;28;20032;-74
2023/11/19 04:28:56;;;;;;;27.85;7.93;;;;;;;13.61;100.00;100733.72;5253000;28;20430;-74
2023/11/19 04:31:33;;;;;;;21.38;5.85;;;;;;;13.69;100.00;100738.22;5256289;28;20039;-74
2023/11/19 04:34:08;;;;;;;22.38;5.28;;;;;;;13.57;100.00;100740.28;5253351;28;20390;-74
2023/11/19 04:36:40;;;;;;;24.60;5.68;;;;;;;13.61;100.00;100751.34;5252427;28;20036;-74
2023/11/19 04:39:12;;;;;;;25.05;5.40;;;;;;;13.61;100.00;100753.97;5251902;28;20462;-74
2023/11/19 04:41:53;;;;;;;22.90;6.15;;;;;;;13.75;100.00;100744.69;5254297;28;20379;-74
2023/11/19 04:44:25;;;;;;;24.20;5.45;;;;;;;13.57;100.00;100747.34;5254219;28;20033;-75
2023/11/19 04:46:58;;;;;;;27.77;5.40;;;;;;;13.57;100.00;100745.53;5252046;28;20425;-75
2023/11/19 04:49:30;;;;;;;23.10;5.43;;;;;;;13.66;100.00;100748.25;5254019;28;20029;-75
2023/11/19 04:52:02;;;;;;;26.33;5.80;;;;;;;13.67;100.00;100742.81;5254002;28;20025;-75
2023/11/19 04:54:34;;;;;;;19.13;5.53;;;;;;;13.71;100.00;100764.41;5253660;28;20490;-74
2023/11/19 04:57:06;;;;;;;24.73;5.88;;;;;;;13.65;100.00;100759.75;5255324;28;20119;-75
2023/11/19 04:59:38;;;;;;;23.38;5.20;;;;;;;13.60;100.00;100747.88;5254843;28;20035;-74
2023/11/19 05:02:10;;;;;;;27.00;6.45;;;;;;;13.58;100.00;100756.91;5252023;28;20033;-75
2023/11/19 05:04:44;;;;;;;23.17;5.25;;;;;;;13.57;100.00;100761.34;5251472;28;20060;-74
2023/11/19 05:07:15;;;;;;;24.90;6.45;;;;;;;13.51;100.00;100761.94;5254223;28;20035;-74
2023/11/19 05:09:47;;;;;;;24.35;5.47;;;;;;;13.51;100.00;100758.47;5254234;28;20470;-74
2023/11/19 05:12:19;;;;;;;27.95;5.68;;;;;;;13.49;100.00;100766.53;5254444;28;20024;-74
2023/11/19 05:14:51;;;;;;;24.95;6.03;;;;;;;13.47;100.00;100765.84;5253920;28;20024;-74
2023/11/19 05:17:23;;;;;;;25.17;6.63;;;;;;;13.43;100.00;100759.22;5249948;28;20037;-75
2023/11/19 05:19:55;;;;;;;29.33;6.60;;;;;;;13.45;100.00;100766.97;5253453;28;20021;-74
2023/11/19 05:22:27;;;;;;;26.73;6.05;;;;;;;13.42;100.00;100770.75;5253032;28;20055;-74
2023/11/19 05:24:59;;;;;;;25.67;5.97;;;;;;;13.44;100.00;100773.22;5252860;28;20034;-75
2023/11/19 05:27:31;;;;;;;23.45;6.00;;;;;;;13.46;100.00;100764.19;5247514;28;20486;-75
2023/11/19 05:30:10;;;;;;;20.35;5.03;;;;;;;13.50;100.00;100777.88;5254125;28;20416;-75
2023/11/19 05:32:42;;;;;;;25.38;6.70;;;;;;;13.33;100.00;100775.13;5258286;28;20488;-74
2023/11/19 05:35:14;;;;;;;25.35;6.00;;;;;;;13.30;100.00;100778.03;5255137;28;20020;-74
2023/11/19 05:37:46;;;;;;;29.42;7.47;;;;;;;13.34;100.00;100773.31;5253501;28;20025;-75
2023/11/19 05:40:20;;;;;;;28.77;6.25;;;;;;;13.30;100.00;100780.66;5256373;28;20040;-74
2023/11/19 05:42:52;;;;;;;30.48;6.43;;;;;;;13.29;100.00;100775.53;5236930;28;20622;-74
2023/11/19 05:45:24;;;;;;;28.80;6.15;;;;;;;13.26;100.00;100771.41;5257604;28;20020;-74
2023/11/19 05:47:56;;;;;;;29.67;6.97;;;;;;;13.26;100.00;100773.19;5253992;28;20024;-74
2023/11/19 05:50:27;;;;;;;25.30;6.88;;;;;;;13.21;100.00;100776.25;5256529;28;20051;-74
2023/11/19 05:52:59;;;;;;;23.20;5.57;;;;;;;13.22;100.00;100774.44;5257625;28;20493;-74
2023/11/19 05:55:34;;;;;;;26.90;5.72;;;;;;;13.26;100.00;100781.09;5256877;28;20324;-74
2023/11/19 05:58:11;;;;;;;27.58;6.00;;;;;;;13.20;100.00;100781.69;5255577;28;20033;-74
2023/11/19 06:00:43;;;;;;;24.70;5.97;;;;;;;13.23;100.00;100789.28;5255891;28;20033;-74
2023/11/19 06:03:15;;;;;;;23.77;5.72;;;;;;;13.15;100.00;100790.00;5257710;28;20028;-74
2023/11/19 06:05:48;;;;;;;27.95;6.50;;;;;;;13.17;100.00;100785.41;5253744;28;20083;-74
2023/11/19 06:08:20;;;;;;;28.98;5.25;;;;;;;13.19;100.00;100780.03;5253845;28;20029;-74
2023/11/19 06:10:52;;;;;;;29.85;7.38;;;;;;;13.23;100.00;100774.34;5256221;28;20021;-74
2023/11/19 06:13:25;;;;;;;24.42;5.25;;;;;;;13.18;100.00;100775.72;5256865;28;20470;-74
2023/11/19 06:15:57;;;;;;;28.10;5.72;;;;;;;13.20;100.00;100773.78;5257018;28;20605;-75
2023/11/19 06:18:30;;;;;;;28.75;6.47;;;;;;;13.18;100.00;100773.09;5255891;28;20032;-74
2023/11/19 06:21:02;;;;;;;27.38;6.20;;;;;;;13.18;100.00;100770.47;5256321;28;20025;-75
2023/11/19 06:23:34;;;;;;;26.60;5.47;;;;;;;13.12;100.00;100782.41;5257460;28;20355;-75
2023/11/19 06:26:06;;;;;;;29.70;6.97;;;;;;;13.09;100.00;100785.34;5254834;28;20023;-74
2023/11/19 06:28:38;;;;;;;28.90;5.43;;;;;;;13.11;100.00;100793.91;5255088;28;20104;-74
2023/11/19 06:31:10;;;;;;;29.13;6.40;;;;;;;13.08;100.00;100779.25;5256958;28;20020;-74
2023/11/19 06:33:42;;;;;;;22.83;5.28;;;;;;;13.05;100.00;100776.91;5256358;28;20379;-74
2023/11/19 06:36:16;;;;;;;26.98;6.00;;;;;;;13.11;100.00;100775.50;5254577;28;20025;-74
2023/11/19 06:38:48;;;;;;;27.08;5.82;;;;;;;13.02;100.00;100779.84;5256159;28;20041;-74
2023/11/19 06:41:19;;;;;;;26.10;5.85;;;;;;;13.01;100.00;100780.81;5252809;28;20029;-74
2023/11/19 06:43:51;;;;;;;24.27;5.75;;;;;;;13.03;100.00;100768.34;5252609;28;20025;-74
2023/11/19 06:46:23;;;;;;;23.02;5.78;;;;;;;13.03;100.00;100772.75;5256611;28;20025;-74
2023/11/19 06:48:55;;;;;;;28.25;6.10;;;;;;;12.97;100.00;100776.00;5256204;28;21148;-74
2023/11/19 06:51:27;;;;;;;20.85;6.70;;;;;;;12.96;100.00;100774.34;5237585;28;20428;-74
2023/11/19 06:53:59;;;;;;;28.48;6.32;;;;;;;12.96;100.00;100779.63;5255081;28;20037;-74
2023/11/19 06:56:31;;;;;;;25.42;6.28;;;;;;;12.87;100.00;100784.75;5255604;28;20493;-74
2023/11/19 06:59:03;;;;;;;28.90;5.68;;;;;;;12.91;100.00;100790.53;5258033;28;20024;-74
2023/11/19 07:01:38;;;;;;;26.33;6.37;;;;;;;12.97;100.00;100783.88;5252970;28;20038;-74
2023/11/19 07:04:13;;;;;;;33.90;7.10;;;;;;;13.00;100.00;100796.75;5234652;28;20041;-74
2023/11/19 07:06:45;;;;;;;25.80;5.88;;;;;;;12.87;100.00;100804.97;5253426;28;20025;-75
2023/11/19 07:09:16;;;;;;;27.38;6.40;;;;;;;12.86;100.00;100804.13;5255915;28;20367;-74
2023/11/19 07:11:53;;;;;;;29.10;6.32;;;;;;;12.81;100.00;100809.03;5255456;28;20029;-74
2023/11/19 07:14:26;;;;;;;26.38;5.93;;;;;;;12.84;100.00;100819.25;5255396;28;20044;-74
2023/11/19 07:17:00;;;;;;;29.13;6.45;;;;;;;12.94;100.00;100821.00;5254450;28;20041;-75
2023/11/19 07:19:31;;;;;;;25.40;5.78;;;;;;;12.91;100.00;100824.72;5255360;28;20029;-74
2023/11/19 07:22:04;;;;;;;22.95;5.35;;;;;;;12.90;100.00;100830.97;5255062;28;20485;-74
2023/11/19 07:24:38;;;;;;;24.73;5.82;;;;;;;12.88;100.00;100831.13;5253160;28;20033;-74
2023/11/19 07:27:10;;;;;;;24.17;6.07;;;;;;;12.81;100.00;100835.31;5249772;28;20044;-74
2023/11/19 07:29:44;;;;;;;31.45;6.00;;;;;;;12.78;100.00;100834.78;5251156;28;20470;-74
2023/11/19 07:32:16;;;;;;;29.50;6.78;;;;;;;12.81;100.00;100839.75;5252949;28;20029;-74
2023/11/19 07:34:48;;;;;;;30.75;6.80;;;;;;;12.81;100.00;100845.00;5256031;28;20648;-74
2023/11/19 07:37:21;;;;;;;25.67;5.93;;;;;;;12.85;100.00;100841.94;5252101;28;20032;-74
2023/11/19 07:39:53;;;;;;;30.67;7.00;;;;;;;12.88;100.00;100833.75;5252139;28;20033;-74
2023/11/19 07:42:24;;;;;;;24.00;6.00;;;;;;;12.83;100.00;100835.97;5254855;28;20028;-74
2023/11/19 07:44:57;;;;;;;23.42;6.57;;;;;;;12.79;100.00;100831.16;5254221;28;20032;-74
2023/11/19 07:47:28;;;;;;;27.38;6.50;;;;;;;12.84;100.00;100832.41;5253388;28;20021;-74
2023/11/19 07:50:00;;;;;;;25.83;5.82;;;;;;;12.81;100.00;100827.41;5252338;28;20029;-74
2023/11/19 07:52:32;;;;;;;27.48;6.25;;;;;;;12.81;100.00;100827.41;5253079;28;20036;-74
2023/11/19 07:55:05;;;;;;;27.85;6.53;;;;;;;12.82;100.00;100838.75;5254449;28;20031;-74
2023/11/19 07:57:37;;;;;;;25.00;5.72;;;;;;;12.89;100.00;100827.53;5253094;28;20044;-74
2023/11/19 08:00:12;;;;;;;25.15;5.90;;;;;;;12.93;100.00;100829.88;5251535;28;20033;-74
2023/11/19 08:02:43;;;;;;;32.08;7.68;;;;;;;12.89;100.00;100834.59;5255027;28;20047;-74
2023/11/19 08:05:15;;;;;;;22.65;5.53;;;;;;;12.91;100.00;100838.69;5253465;28;20029;-74
2023/11/19 08:07:47;;;;;;;34.63;6.85;;;;;;;12.95;100.00;100841.03;5253529;28;20033;-74
2023/11/19 08:10:19;;;;;;;28.25;5.65;;;;;;;12.85;100.00;100836.66;5252370;28;20417;-74
2023/11/19 08:12:51;;;;;;;22.92;6.00;;;;;;;12.96;100.00;100845.34;5245883;28;20043;-74
2023/11/19 08:15:23;;;;;;;27.70;5.47;;;;;;;12.89;100.00;100845.94;5251745;28;20033;-74
2023/11/19 08:17:55;;;;;;;34.13;7.63;;;;;;;12.92;100.00;100844.81;5253160;28;20033;-74
2023/11/19 08:20:27;;;;;;;29.95;7.18;;;;;;;12.96;100.00;100846.19;5249421;28;20504;-74
2023/11/19 08:22:59;;;;;;;29.10;5.95;;;;;;;12.99;100.00;100850.31;5253557;28;20084;-74
2023/11/19 08:25:31;;;;;;;27.80;6.10;;;;;;;13.00;100.00;100849.34;5247473;28;20118;-74
2023/11/19 08:28:03;;;;;;;23.58;6.13;;;;;;;13.05;100.00;100855.00;5251852;28;20024;-74
2023/11/19 08:30:35;;;;;;;21.25;5.35;;;;;;;13.03;100.00;100846.41;5250521;28;20458;-74
2023/11/19 08:33:07;;;;;;;27.52;6.55;;;;;;;13.08;100.00;100849.44;5249326;28;20481;-74
2023/11/19 08:35:39;;;;;;;33.38;8.50;;;;;;;12.96;100.00;100837.47;5252510;28;20055;-74
2023/11/19 08:38:11;;;;;;;26.95;6.15;;;;;;;13.07;100.00;100848.63;5253042;28;20029;-74
2023/11/19 08:40:43;;;;;;;22.90;6.00;;;;;;;13.15;100.00;100845.25;5249204;28;20029;-75
2023/11/19 08:43:15;;;;;;;28.85;6.75;;;;;;;13.17;100.00;100845.09;5252680;28;20031;-74
2023/11/19 08:45:47;;;;;;;30.63;7.20;;;;;;;13.22;100.00;100845.47;5253287;28;20037;-74
2023/11/19 08:48:19;;;;;;;25.42;6.28;;;;;;;13.26;100.00;100847.72;5236015;28;20033;-74
2023/11/19 08:50:51;;;;;;;21.98;6.63;;;;;;;13.29;100.00;100854.47;5253397;28;20028;-74
2023/11/19 08:53:23;;;;;;;25.60;5.68;;;;;;;13.29;100.00;100851.84;5250319;28;20028;-74
2023/11/19 08:55:55;;;;;;;26.98;5.93;;;;;;;13.29;100.00;100842.13;5252289;28;20023;-74
2023/11/19 08:58:27;;;;;;;30.77;6.80;;;;;;;13.37;100.00;100847.50;5244175;28;20035;-74
2023/11/19 09:00:59;;;;;;;27.02;5.97;;;;;;;13.42;100.00;100854.97;5242901;28;20038;-74
2023/11/19 09:03:31;;;;;;;29.45;6.55;;;;;;;13.48;100.00;100856.97;5231777;28;20045;-74
2023/11/19 09:06:03;;;;;;;28.40;7.38;;;;;;;13.45;100.00;100852.03;5251070;28;20040;-74
2023/11/19 09:08:35;;;;;;;22.77;5.82;;;;;;;13.53;100.00;100864.44;5254134;28;20044;-74
2023/11/19 09:11:08;;;;;;;30.05;6.30;;;;;;;13.57;100.00;100856.09;5251821;28;20021;-74
2023/11/19 09:13:40;;;;;;;;;;;;;;;14.32;100.00;100856.59;5257601;28;20033;-75
2023/11/19 09:16:12;;;;;;;32.25;6.97;;;;;;;13.75;100.00;100855.25;5233213;28;19923;-74
2023/11/19 09:18:44;;;;;;;32.97;7.57;;;;;;;13.77;100.00;100842.78;5252608;28;20547;-75
2023/11/19 09:21:16;;;;;;;28.75;6.32;;;;;;;13.87;100.00;100854.91;5255576;28;20414;-75
2023/11/19 09:23:49;;;;;;;28.17;6.30;;;;;;;13.87;100.00;100854.91;5240688;28;20025;-75
2023/11/19 09:26:21;;;;;;;24.88;6.15;;;;;;;13.95;100.00;100850.69;5247183;28;20029;-74
2023/11/19 09:28:52;;;;;;;29.77;7.18;;;;;;;13.96;100.00;100847.06;5246717;28;20049;-75
2023/11/19 09:31:24;;;;;;;27.70;6.18;;;;;;;13.97;100.00;100838.19;5252047;28;20029;-75
2023/11/19 09:33:56;;;;;;;26.00;5.55;;;;;;;14.00;100.00;100832.63;5250395;28;20067;-75
2023/11/19 09:36:28;;;;;;;29.38;5.65;;;;;;;14.01;100.00;100847.44;5250127;28;20039;-75
2023/11/19 09:39:01;;;;;;;25.55;5.95;;;;;;;14.02;100.00;100844.66;5250042;28;20039;-75
2023/11/19 09:41:34;;;;;;;23.25;5.68;;;;;;;13.96;100.00;100832.09;5253397;28;20036;-75
2023/11/19 09:44:06;;;;;;;28.08;6.57;;;;;;;14.13;100.00;100851.50;5251959;28;20508;-75
2023/11/19 09:46:41;;;;;;;24.70;6.32;;;;;;;14.27;100.00;100848.28;5254022;28;20037;-75
2023/11/19 09:49:15;;;;;;;24.55;7.00;;;;;;;14.19;100.00;100845.59;5254485;28;20394;-75
2023/11/19 09:51:47;;;;;;;27.63;5.82;;;;;;;14.27;100.00;100844.84;5254414;28;20035;-75
2023/11/19 09:54:19;;;;;;;26.27;6.60;;;;;;;14.42;100.00;100858.28;5255572;28;20421;-75
2023/11/19 09:56:50;;;;;;;29.00;6.28;;;;;;;14.48;100.00;100847.94;5255793;28;20036;-75
2023/11/19 09:59:22;;;;;;;27.25;6.40;;;;;;;14.54;100.00;100844.69;5255932;28;20021;-75
2023/11/19 10:01:56;;;;;;;25.60;6.13;;;;;;;14.58;100.00;100850.50;5255727;28;20401;-76
2023/11/19 10:04:31;;;;;;;31.10;7.05;;;;;;;14.59;100.00;100833.72;5253566;28;20037;-76
2023/11/19 10:07:03;;;;;;;29.48;6.93;;;;;;;14.74;100.00;100847.97;5253518;28;20033;-74
2023/11/19 10:09:35;;;;;;;22.20;6.07;;;;;;;14.83;100.00;100847.00;5249365;28;20040;-75
2023/11/19 10:12:07;;;;;;;25.30;5.95;;;;;;;14.70;100.00;100843.13;5253149;28;20032;-74
2023/11/19 10:14:40;;;;;;;25.02;6.70;;;;;;;14.78;100.00;100840.56;5246087;28;20549;-75
2023/11/19 10:17:12;;;;;;;28.65;6.07;;;;;;;14.81;100.00;100834.97;5242946;28;20025;-75
2023/11/19 10:19:44;;;;;;;29.15;7.03;;;;;;;14.97;100.00;100847.41;5250829;28;20037;-75
2023/11/19 10:22:18;;;;;;;20.20;5.15;;;;;;;14.96;100.00;100843.09;5247399;28;20075;-75
2023/11/19 10:24:50;;;;;;;25.63;6.10;;;;;;;15.07;100.00;100850.72;5252073;28;20033;-75
2023/11/19 10:27:24;;;;;;;27.63;6.18;;;;;;;15.08;100.00;100852.41;5255807;28;20029;-75
2023/11/19 10:29:59;;;;;;;23.92;5.93;;;;;;;15.08;100.00;100847.94;5251546;28;20387;-74
2023/11/19 10:32:31;;;;;;;20.80;5.25;;;;;;;15.00;100.00;100839.16;5240337;28;20053;-74
2023/11/19 10:35:07;;;;;;;28.23;6.40;;;;;;;15.00;100.00;100844.44;5250796;28;20055;-75
2023/11/19 10:37:39;;;;;;;28.35;6.28;;;;;;;14.96;100.00;100848.38;5249448;28;20037;-75
2023/11/19 10:40:11;;;;;;;23.90;6.50;;;;;;;14.95;100.00;100837.00;5253441;28;20526;-75
2023/11/19 10:42:43;;;;;;;25.02;6.60;;;;;;;15.06;100.00;100842.00;5246179;28;20043;-75
2023/11/19 10:45:24;;;;;;;24.15;6.25;;;;;;;15.32;100.00;100843.72;5246043;28;20391;-75
2023/11/19 10:47:56;;;;;;;23.92;6.50;;;;;;;15.10;100.00;100837.22;5250214;28;20037;-75
2023/11/19 10:50:29;;;;;;;23.17;5.82;;;;;;;15.16;100.00;100852.44;5251467;28;20374;-75
2023/11/19 10:53:01;;;;;;;26.92;5.20;;;;;;;15.15;100.00;100853.41;5236762;28;20528;-75
2023/11/19 10:55:35;;;;;;;24.90;6.88;;;;;;;15.14;100.00;100848.28;5223719;28;20033;-75
2023/11/19 10:58:09;;;;;;;22.92;5.75;;;;;;;15.26;100.00;100841.72;5254554;28;20021;-75
2023/11/19 11:00:50;;;;;;;20.90;5.03;;;;;;;15.26;100.00;100839.09;5254238;28;20398;-75
2023/11/19 11:03:25;;;;;;;23.60;5.63;;;;;;;15.30;100.00;100841.28;5254675;28;20036;-75
2023/11/19 11:05:57;;;;;;;17.98;5.00;;;;;;;15.26;100.00;100834.63;5254152;28;20024;-75
2023/11/19 11:08:30;;;;;;;23.98;5.95;;;;;;;15.29;100.00;100831.69;5253872;28;20032;-75
2023/11/19 11:11:04;;;;;;;20.83;5.43;;;;;;;15.25;100.00;100826.88;5253219;28;20386;-75
2023/11/19 11:13:41;;;;;;;23.50;5.57;;;;;;;15.18;100.00;100820.59;5253800;28;20029;-75
2023/11/19 11:16:14;;;;;;;24.05;5.40;;;;;;;15.18;100.00;100821.41;5254783;28;20025;-75
2023/11/19 11:18:51;;;;;;;17.73;5.13;;;;;;;15.11;100.00;100816.94;5246830;28;20032;-75
2023/11/19 11:21:26;;;;;;;16.02;4.95;;;;;;;14.98;100.00;100823.50;5247233;28;20056;-75
2023/11/19 11:24:28;;;;;;;20.27;5.68;;;;;;;15.04;100.00;100824.69;5253293;28;20040;-75
2023/11/19 11:27:16;;;;;;;21.02;5.40;;;;;;;14.99;100.00;100822.50;5247396;28;20037;-74
2023/11/19 11:30:13;;;;;;;23.42;5.38;;;;;;;14.87;100.00;100829.06;5251623;28;20265;-74
2023/11/19 11:32:54;;;;;;;21.65;5.43;;;;;;;14.73;100.00;100819.09;5251988;28;20043;-74
2023/11/19 11:35:49;;;;;;;15.43;4.03;;;;;;;14.77;100.00;100818.66;5252833;28;20044;-74
2023/11/19 11:38:25;;;;;;;19.08;4.45;;;;;;;14.37;100.00;100811.31;5248766;28;20025;-74